createdAt,value
2019-01-09T09:14:37.130Z,7.13
2019-01-09T09:17:05.376Z,3.17
2019-01-09T09:19:33.641Z,3.83
2019-01-09T09:22:01.927Z,11.93
2019-01-09T09:24:30.205Z,10.23
2019-01-09T09:26:58.456Z,14.23
2019-01-09T09:29:26.722Z,6.90
2019-01-09T09:31:54.967Z,9.37
2019-01-09T09:34:23.236Z,4.13
2019-01-09T09:36:51.485Z,10.47
2019-01-09T09:39:19.755Z,8.00
2019-01-09T09:41:48.004Z,13.50
2019-01-09T09:44:16.270Z,5.70
2019-01-09T09:46:44.512Z,6.77
2019-01-09T09:49:12.778Z,2.10
2019-01-09T09:51:41.023Z,4.53
2019-01-09T09:54:09.299Z,8.00
2019-01-09T09:56:37.547Z,3.13
2019-01-09T09:59:05.815Z,4.03
2019-01-09T10:01:37.309Z,5.87
2019-01-09T10:04:05.581Z,3.23
2019-01-09T10:06:33.830Z,3.47
2019-01-09T10:09:02.079Z,5.00
2019-01-09T10:11:30.344Z,2.53
2019-01-09T10:13:58.592Z,2.77
2019-01-09T10:16:26.860Z,5.73
2019-01-09T10:18:55.102Z,6.07
2019-01-09T10:21:23.371Z,5.27
2019-01-09T10:23:51.614Z,3.90
2019-01-09T10:26:19.883Z,1.57
2019-01-09T10:28:48.128Z,3.90
2019-01-09T10:31:16.399Z,3.53
2019-01-09T10:33:44.645Z,3.67
2019-01-09T10:36:12.955Z,3.10
2019-01-09T10:38:41.194Z,5.07
2019-01-09T10:41:09.471Z,4.20
2019-01-09T10:43:37.711Z,4.03
2019-01-09T10:46:05.976Z,4.13
2019-01-09T10:48:34.222Z,4.30
2019-01-09T10:51:04.884Z,2.70
2019-01-09T10:53:33.209Z,2.97
2019-01-09T10:56:01.962Z,1.97
2019-01-09T10:58:30.279Z,5.10
2019-01-09T11:00:58.545Z,1.87
2019-01-09T11:03:26.793Z,3.37
2019-01-09T11:05:55.061Z,5.53
2019-01-09T11:08:23.343Z,3.37
2019-01-09T11:10:51.611Z,4.97
2019-01-09T11:13:19.858Z,2.70
2019-01-09T11:15:48.129Z,2.30
2019-01-09T11:18:16.370Z,3.77
2019-01-09T11:20:44.641Z,1.00
2019-01-09T11:23:12.920Z,1.47
2019-01-09T11:25:41.159Z,1.93
2019-01-09T11:28:09.403Z,1.87
2019-01-09T11:30:37.670Z,1.80
2019-01-09T11:33:05.916Z,3.47
2019-01-09T11:35:34.179Z,2.97
2019-01-09T11:38:02.424Z,3.87
2019-01-09T11:40:30.692Z,2.00
2019-01-09T11:42:58.934Z,2.93
2019-01-09T11:45:27.208Z,2.93
2019-01-09T11:47:55.451Z,3.30
2019-01-09T11:50:23.727Z,1.57
2019-01-09T11:52:51.971Z,0.63
2019-01-09T11:55:20.236Z,0.93
2019-01-09T11:57:48.482Z,2.03
2019-01-09T12:00:20.014Z,1.83
2019-01-09T12:02:48.257Z,0.70
2019-01-09T12:05:16.524Z,2.10
2019-01-09T12:07:44.774Z,2.83
2019-01-09T12:10:29.825Z,2.80
2019-01-09T12:12:51.746Z,1.37
2019-01-09T12:15:20.020Z,2.00
2019-01-09T12:17:48.259Z,1.50
2019-01-09T12:20:18.364Z,1.33
2019-01-09T12:22:46.607Z,2.20
2019-01-09T12:25:14.877Z,1.20
2019-01-09T12:27:43.121Z,2.47
2019-01-09T12:30:22.980Z,2.07
2019-01-09T12:32:51.227Z,1.27
2019-01-09T12:35:19.471Z,1.33
2019-01-09T12:37:47.738Z,1.97
2019-01-09T12:40:15.984Z,1.07
2019-01-09T12:42:44.255Z,1.77
2019-01-09T12:45:17.112Z,1.67
2019-01-09T12:47:45.379Z,0.83
2019-01-09T12:50:19.491Z,3.23
2019-01-09T12:52:47.762Z,1.10
2019-01-09T12:55:16.007Z,2.23
2019-01-09T12:57:44.482Z,2.30
2019-01-09T13:00:22.081Z,2.63
2019-01-09T13:02:50.347Z,1.33
2019-01-09T13:05:18.674Z,3.67
2019-01-09T13:07:46.943Z,1.07
2019-01-09T13:10:15.191Z,1.50
2019-01-09T13:12:43.459Z,1.50
2019-01-09T13:15:11.879Z,3.03
2019-01-09T13:17:40.147Z,1.90
2019-01-09T13:20:13.530Z,1.00
2019-01-09T13:22:41.791Z,0.97
2019-01-09T13:25:11.469Z,2.77
2019-01-09T13:27:39.734Z,2.33
2019-01-09T13:30:13.218Z,2.27
2019-01-09T13:32:41.699Z,1.80
2019-01-09T13:35:09.943Z,2.13
2019-01-09T13:37:38.291Z,1.13
2019-01-09T13:40:12.411Z,1.60
2019-01-09T13:42:40.679Z,0.70
2019-01-09T13:45:11.563Z,1.73
2019-01-09T13:47:39.832Z,1.23
2019-01-09T13:50:11.209Z,0.80
2019-01-09T13:52:39.545Z,1.33
2019-01-09T13:55:09.828Z,1.73
2019-01-09T13:57:38.095Z,0.93
2019-01-09T14:00:12.327Z,0.40
2019-01-09T14:02:40.594Z,1.13
2019-01-09T14:05:09.714Z,1.30
2019-01-09T14:07:37.943Z,1.40
2019-01-09T14:10:10.972Z,1.00
2019-01-09T14:12:39.495Z,2.73
2019-01-09T14:15:11.042Z,0.50
2019-01-09T14:17:39.310Z,1.77
2019-01-09T14:20:10.592Z,0.70
2019-01-09T14:22:38.861Z,1.03
2019-01-09T14:25:09.842Z,1.13
2019-01-09T14:27:38.105Z,2.23
2019-01-09T14:30:20.906Z,1.07
2019-01-09T14:32:49.171Z,0.70
2019-01-09T14:35:17.416Z,0.93
2019-01-09T14:37:45.683Z,1.53
2019-01-09T14:40:19.126Z,1.20
2019-01-09T14:42:47.389Z,2.23
2019-01-09T14:45:16.981Z,3.97
2019-01-09T14:47:46.099Z,2.10
2019-01-09T14:50:17.598Z,2.80
2019-01-09T14:52:45.892Z,3.13
2019-01-09T14:55:14.553Z,2.50
2019-01-09T14:57:42.825Z,0.97
2019-01-09T15:00:19.567Z,4.50
2019-01-09T15:02:47.838Z,3.00
2019-01-09T15:05:16.124Z,3.17
2019-01-09T15:07:44.348Z,1.70
2019-01-09T15:10:21.855Z,4.20
2019-01-09T15:12:50.779Z,2.17
2019-01-09T15:15:19.020Z,2.33
2019-01-09T15:17:47.335Z,1.27
2019-01-09T15:20:17.413Z,3.90
2019-01-09T15:22:45.655Z,3.27
2019-01-09T15:25:14.999Z,1.67
2019-01-09T15:27:43.247Z,2.03
2019-01-09T15:30:17.538Z,1.90
2019-01-09T15:32:45.781Z,5.13
2019-01-09T15:35:14.590Z,5.50
2019-01-09T15:37:42.904Z,2.23
2019-01-09T15:40:14.517Z,6.57
2019-01-09T15:42:42.763Z,5.17
2019-01-09T15:45:12.827Z,3.83
2019-01-09T15:47:41.178Z,5.20
2019-01-09T15:50:12.948Z,10.37
2019-01-09T15:52:41.200Z,5.10
2019-01-09T15:55:12.566Z,1.37
2019-01-09T15:57:41.248Z,2.70
2019-01-09T16:00:21.187Z,2.90
2019-01-09T16:02:49.626Z,5.20
2019-01-09T16:05:18.034Z,2.70
2019-01-09T16:07:46.309Z,3.53
2019-01-09T16:10:20.055Z,7.17
2019-01-09T16:12:48.299Z,4.13
2019-01-09T16:15:17.604Z,3.70
2019-01-09T16:17:45.853Z,3.93
2019-01-09T16:20:19.093Z,2.63
2019-01-09T16:22:47.333Z,2.10
2019-01-09T16:25:15.869Z,3.47
2019-01-09T16:27:44.109Z,2.80
2019-01-09T16:30:21.359Z,3.10
2019-01-09T16:32:49.599Z,1.43
2019-01-09T16:35:18.000Z,3.17
2019-01-09T16:37:46.247Z,2.13
2019-01-09T16:40:23.266Z,4.87
2019-01-09T16:42:45.897Z,2.83
2019-01-09T16:45:15.238Z,2.13
2019-01-09T16:47:43.494Z,2.77
2019-01-09T16:50:15.377Z,4.43
2019-01-09T16:52:43.627Z,2.30
2019-01-09T16:55:12.037Z,4.50
2019-01-09T16:57:40.694Z,4.47
2019-01-09T17:00:12.209Z,2.50
2019-01-09T17:02:41.310Z,1.87
2019-01-09T17:05:11.020Z,2.17
2019-01-09T17:07:39.277Z,1.63
2019-01-09T17:10:11.089Z,4.37
2019-01-09T17:12:39.335Z,1.67
2019-01-09T17:16:02.119Z,2.23
2019-01-09T17:18:30.366Z,4.03
2019-01-09T17:20:58.626Z,3.00
2019-01-09T17:23:26.873Z,3.87
2019-01-09T17:25:55.421Z,4.30
2019-01-09T17:28:23.664Z,2.00
2019-01-09T17:30:51.934Z,2.10
2019-01-09T17:33:20.180Z,4.10
2019-01-09T17:35:48.449Z,2.90
2019-01-09T17:38:16.703Z,2.53
2019-01-09T17:40:44.969Z,1.70
2019-01-09T17:43:13.212Z,2.10
2019-01-09T17:45:41.477Z,2.67
2019-01-09T17:48:09.727Z,0.70
2019-01-09T17:50:38.641Z,2.40
2019-01-09T17:53:06.996Z,1.30
2019-01-09T17:55:35.235Z,1.37
2019-01-09T17:58:03.487Z,1.27
2019-01-09T18:00:35.008Z,1.70
2019-01-09T18:03:03.630Z,1.93
2019-01-09T18:05:31.899Z,1.33
2019-01-09T18:08:00.146Z,0.83
2019-01-09T18:10:28.497Z,2.17
2019-01-09T18:12:56.741Z,3.03
2019-01-09T18:15:25.266Z,2.73
2019-01-09T18:17:53.534Z,2.00
2019-01-09T18:20:23.011Z,1.33
2019-01-09T18:22:51.289Z,1.93
2019-01-09T18:25:27.524Z,2.03
2019-01-09T18:27:55.796Z,0.60
2019-01-09T18:30:36.249Z,1.03
2019-01-09T18:33:19.189Z,1.37
2019-01-09T18:36:05.597Z,0.93
2019-01-09T18:38:58.097Z,1.13
2019-01-09T18:41:38.463Z,1.20
2019-01-09T18:44:26.421Z,2.00
2019-01-09T18:47:16.010Z,0.77
2019-01-09T18:50:08.667Z,1.27
2019-01-09T18:52:43.317Z,1.27
2019-01-09T18:55:11.564Z,0.93
2019-01-09T18:57:39.836Z,1.90
2019-01-09T19:00:14.466Z,1.97
2019-01-09T19:02:42.735Z,1.00
2019-01-09T19:05:10.978Z,1.53
2019-01-09T19:07:39.252Z,0.80
2019-01-09T19:10:16.567Z,0.77
2019-01-09T19:12:45.125Z,1.10
2019-01-09T19:15:14.203Z,0.60
2019-01-09T19:17:42.475Z,2.30
2019-01-09T19:20:12.161Z,1.00
2019-01-09T19:22:40.426Z,1.27
2019-01-09T19:25:12.248Z,0.70
2019-01-09T19:27:40.585Z,1.40
2019-01-09T19:30:17.985Z,1.03
2019-01-09T19:32:46.255Z,1.27
2019-01-09T19:35:14.977Z,0.87
2019-01-09T19:37:43.243Z,0.70
2019-01-09T19:40:11.494Z,1.20
2019-01-09T19:42:39.766Z,1.27
2019-01-09T19:45:10.548Z,0.80
2019-01-09T19:47:38.814Z,1.30
2019-01-09T19:50:22.192Z,1.23
2019-01-09T19:52:50.898Z,1.17
2019-01-09T19:55:19.144Z,1.37
2019-01-09T19:57:47.410Z,0.97
2019-01-09T20:00:23.945Z,1.53
2019-01-09T20:02:52.214Z,1.37
2019-01-09T20:05:20.511Z,1.87
2019-01-09T20:07:48.849Z,0.80
2019-01-09T20:10:19.892Z,1.70
2019-01-09T20:12:48.209Z,1.13
2019-01-09T20:15:17.692Z,1.70
2019-01-09T20:17:46.016Z,3.40
2019-01-09T20:20:16.740Z,0.70
2019-01-09T20:22:45.404Z,0.80
